sensor_id;sensor_type;location;lat;lon;timestamp;P1;durP1;ratioP1;P2;durP2;ratioP2
71734;SDS011;59577;52.122;5.406;2023-04-23T00:01:43;42.50;;;19.20;;
71734;SDS011;59577;52.122;5.406;2023-04-23T00:04:11;39.10;;;18.40;;
71734;SDS011;59577;52.122;5.406;2023-04-23T00:06:38;42.30;;;18.67;;
71734;SDS011;59577;52.122;5.406;2023-04-23T00:09:08;38.33;;;16.92;;
71734;SDS011;59577;52.122;5.406;2023-04-23T00:11:35;35.65;;;16.52;;
71734;SDS011;59577;52.122;5.406;2023-04-23T00:14:02;40.10;;;17.60;;
71734;SDS011;59577;52.122;5.406;2023-04-23T00:16:29;48.70;;;21.10;;
71734;SDS011;59577;52.122;5.406;2023-04-23T00:18:56;45.17;;;19.10;;
71734;SDS011;59577;52.122;5.406;2023-04-23T00:21:22;45.65;;;19.95;;
71734;SDS011;59577;52.122;5.406;2023-04-23T00:23:49;44.72;;;19.52;;
71734;SDS011;59577;52.122;5.406;2023-04-23T00:26:15;47.15;;;19.83;;
71734;SDS011;59577;52.122;5.406;2023-04-23T00:28:43;37.97;;;18.40;;
71734;SDS011;59577;52.122;5.406;2023-04-23T00:31:10;43.78;;;18.90;;
71734;SDS011;59577;52.122;5.406;2023-04-23T00:33:37;40.08;;;19.48;;
71734;SDS011;59577;52.122;5.406;2023-04-23T00:36:03;46.83;;;20.17;;
71734;SDS011;59577;52.122;5.406;2023-04-23T00:38:31;50.35;;;22.10;;
71734;SDS011;59577;52.122;5.406;2023-04-23T00:40:57;51.10;;;20.90;;
71734;SDS011;59577;52.122;5.406;2023-04-23T00:43:24;45.50;;;19.92;;
71734;SDS011;59577;52.122;5.406;2023-04-23T00:45:51;57.10;;;21.95;;
71734;SDS011;59577;52.122;5.406;2023-04-23T00:48:18;51.25;;;22.33;;
71734;SDS011;59577;52.122;5.406;2023-04-23T00:50:45;51.00;;;21.27;;
71734;SDS011;59577;52.122;5.406;2023-04-23T00:53:11;56.40;;;22.70;;
71734;SDS011;59577;52.122;5.406;2023-04-23T00:55:38;54.80;;;23.40;;
71734;SDS011;59577;52.122;5.406;2023-04-23T00:58:05;58.47;;;24.50;;
71734;SDS011;59577;52.122;5.406;2023-04-23T01:00:33;55.05;;;24.70;;
71734;SDS011;59577;52.122;5.406;2023-04-23T01:03:05;60.47;;;23.85;;
71734;SDS011;59577;52.122;5.406;2023-04-23T01:05:32;60.37;;;23.07;;
71734;SDS011;59577;52.122;5.406;2023-04-23T01:07:59;61.15;;;26.05;;
71734;SDS011;59577;52.122;5.406;2023-04-23T01:10:25;68.03;;;26.05;;
71734;SDS011;59577;52.122;5.406;2023-04-23T01:12:52;55.20;;;23.13;;
71734;SDS011;59577;52.122;5.406;2023-04-23T01:15:18;64.20;;;26.35;;
71734;SDS011;59577;52.122;5.406;2023-04-23T01:17:45;56.07;;;23.67;;
71734;SDS011;59577;52.122;5.406;2023-04-23T01:20:11;57.25;;;25.25;;
71734;SDS011;59577;52.122;5.406;2023-04-23T01:22:38;54.97;;;23.52;;
71734;SDS011;59577;52.122;5.406;2023-04-23T01:25:04;57.50;;;22.40;;
71734;SDS011;59577;52.122;5.406;2023-04-23T01:27:33;55.72;;;24.02;;
71734;SDS011;59577;52.122;5.406;2023-04-23T01:30:02;49.33;;;21.37;;
71734;SDS011;59577;52.122;5.406;2023-04-23T01:32:30;54.15;;;22.23;;
71734;SDS011;59577;52.122;5.406;2023-04-23T01:34:57;48.67;;;21.25;;
71734;SDS011;59577;52.122;5.406;2023-04-23T01:37:24;53.15;;;22.77;;
71734;SDS011;59577;52.122;5.406;2023-04-23T01:39:51;57.63;;;23.90;;
71734;SDS011;59577;52.122;5.406;2023-04-23T01:42:18;59.40;;;24.60;;
71734;SDS011;59577;52.122;5.406;2023-04-23T01:44:45;56.25;;;23.95;;
71734;SDS011;59577;52.122;5.406;2023-04-23T01:47:11;57.80;;;23.70;;
71734;SDS011;59577;52.122;5.406;2023-04-23T01:49:38;57.97;;;23.83;;
71734;SDS011;59577;52.122;5.406;2023-04-23T01:52:05;57.08;;;22.67;;
71734;SDS011;59577;52.122;5.406;2023-04-23T01:54:31;60.20;;;24.13;;
71734;SDS011;59577;52.122;5.406;2023-04-23T01:56:58;53.22;;;21.92;;
71734;SDS011;59577;52.122;5.406;2023-04-23T01:59:24;49.75;;;22.95;;
71734;SDS011;59577;52.122;5.406;2023-04-23T02:01:51;53.40;;;22.73;;
71734;SDS011;59577;52.122;5.406;2023-04-23T02:04:17;49.92;;;20.77;;
71734;SDS011;59577;52.122;5.406;2023-04-23T02:06:45;55.77;;;23.10;;
71734;SDS011;59577;52.122;5.406;2023-04-23T02:09:15;51.40;;;20.80;;
71734;SDS011;59577;52.122;5.406;2023-04-23T02:11:42;49.50;;;22.67;;
71734;SDS011;59577;52.122;5.406;2023-04-23T02:14:08;50.67;;;22.42;;
71734;SDS011;59577;52.122;5.406;2023-04-23T02:16:35;53.25;;;22.70;;
71734;SDS011;59577;52.122;5.406;2023-04-23T02:19:02;52.50;;;22.33;;
71734;SDS011;59577;52.122;5.406;2023-04-23T02:21:28;53.30;;;22.27;;
71734;SDS011;59577;52.122;5.406;2023-04-23T02:23:55;51.80;;;22.67;;
71734;SDS011;59577;52.122;5.406;2023-04-23T02:26:22;45.80;;;21.20;;
71734;SDS011;59577;52.122;5.406;2023-04-23T02:28:50;52.05;;;22.27;;
71734;SDS011;59577;52.122;5.406;2023-04-23T02:31:17;58.93;;;22.63;;
71734;SDS011;59577;52.122;5.406;2023-04-23T02:33:45;50.92;;;22.25;;
71734;SDS011;59577;52.122;5.406;2023-04-23T02:36:13;51.50;;;23.25;;
71734;SDS011;59577;52.122;5.406;2023-04-23T02:38:39;51.00;;;22.02;;
71734;SDS011;59577;52.122;5.406;2023-04-23T02:41:10;56.25;;;23.33;;
71734;SDS011;59577;52.122;5.406;2023-04-23T02:43:37;54.23;;;21.50;;
71734;SDS011;59577;52.122;5.406;2023-04-23T02:46:04;49.80;;;21.55;;
71734;SDS011;59577;52.122;5.406;2023-04-23T02:48:37;50.30;;;21.67;;
71734;SDS011;59577;52.122;5.406;2023-04-23T02:51:07;47.70;;;21.50;;
71734;SDS011;59577;52.122;5.406;2023-04-23T02:53:35;47.90;;;21.85;;
71734;SDS011;59577;52.122;5.406;2023-04-23T02:56:02;52.33;;;21.67;;
71734;SDS011;59577;52.122;5.406;2023-04-23T02:58:28;47.65;;;22.08;;
71734;SDS011;59577;52.122;5.406;2023-04-23T03:00:55;51.50;;;23.08;;
71734;SDS011;59577;52.122;5.406;2023-04-23T03:03:23;47.30;;;21.33;;
71734;SDS011;59577;52.122;5.406;2023-04-23T03:05:52;53.88;;;22.15;;
71734;SDS011;59577;52.122;5.406;2023-04-23T03:08:19;47.57;;;19.57;;
71734;SDS011;59577;52.122;5.406;2023-04-23T03:10:45;49.50;;;20.38;;
71734;SDS011;59577;52.122;5.406;2023-04-23T03:13:12;47.60;;;20.08;;
71734;SDS011;59577;52.122;5.406;2023-04-23T03:15:39;48.75;;;21.48;;
71734;SDS011;59577;52.122;5.406;2023-04-23T03:18:06;49.92;;;21.40;;
71734;SDS011;59577;52.122;5.406;2023-04-23T03:20:34;43.50;;;19.67;;
71734;SDS011;59577;52.122;5.406;2023-04-23T03:23:01;43.47;;;19.20;;
71734;SDS011;59577;52.122;5.406;2023-04-23T03:25:28;42.17;;;19.88;;
71734;SDS011;59577;52.122;5.406;2023-04-23T03:27:55;49.53;;;20.77;;
71734;SDS011;59577;52.122;5.406;2023-04-23T03:30:22;45.03;;;18.83;;
71734;SDS011;59577;52.122;5.406;2023-04-23T03:32:49;41.40;;;18.83;;
71734;SDS011;59577;52.122;5.406;2023-04-23T03:35:16;37.33;;;17.88;;
71734;SDS011;59577;52.122;5.406;2023-04-23T03:37:42;36.33;;;17.27;;
71734;SDS011;59577;52.122;5.406;2023-04-23T03:40:09;34.05;;;15.95;;
71734;SDS011;59577;52.122;5.406;2023-04-23T03:42:36;35.85;;;16.20;;
71734;SDS011;59577;52.122;5.406;2023-04-23T03:45:02;35.83;;;16.00;;
71734;SDS011;59577;52.122;5.406;2023-04-23T03:47:29;38.03;;;15.90;;
71734;SDS011;59577;52.122;5.406;2023-04-23T03:49:56;33.78;;;16.27;;
71734;SDS011;59577;52.122;5.406;2023-04-23T03:52:23;34.75;;;16.42;;
71734;SDS011;59577;52.122;5.406;2023-04-23T03:54:50;31.33;;;15.52;;
71734;SDS011;59577;52.122;5.406;2023-04-23T03:57:16;35.03;;;16.03;;
71734;SDS011;59577;52.122;5.406;2023-04-23T03:59:43;36.75;;;16.67;;
71734;SDS011;59577;52.122;5.406;2023-04-23T04:02:09;38.85;;;17.15;;
71734;SDS011;59577;52.122;5.406;2023-04-23T04:04:36;35.33;;;16.33;;
71734;SDS011;59577;52.122;5.406;2023-04-23T04:07:03;37.30;;;17.42;;
71734;SDS011;59577;52.122;5.406;2023-04-23T04:09:32;38.87;;;17.60;;
71734;SDS011;59577;52.122;5.406;2023-04-23T04:11:59;37.55;;;17.67;;
71734;SDS011;59577;52.122;5.406;2023-04-23T04:14:25;35.03;;;16.73;;
71734;SDS011;59577;52.122;5.406;2023-04-23T04:16:52;35.20;;;16.58;;
71734;SDS011;59577;52.122;5.406;2023-04-23T04:19:19;36.03;;;15.90;;
71734;SDS011;59577;52.122;5.406;2023-04-23T04:21:45;39.30;;;16.73;;
71734;SDS011;59577;52.122;5.406;2023-04-23T04:24:12;38.17;;;16.42;;
71734;SDS011;59577;52.122;5.406;2023-04-23T04:26:39;33.80;;;16.83;;
71734;SDS011;59577;52.122;5.406;2023-04-23T04:29:06;33.13;;;15.10;;
71734;SDS011;59577;52.122;5.406;2023-04-23T04:31:34;32.60;;;15.55;;
71734;SDS011;59577;52.122;5.406;2023-04-23T04:34:01;33.20;;;17.00;;
71734;SDS011;59577;52.122;5.406;2023-04-23T04:36:31;32.08;;;16.08;;
71734;SDS011;59577;52.122;5.406;2023-04-23T04:38:58;32.42;;;15.80;;
71734;SDS011;59577;52.122;5.406;2023-04-23T04:41:24;27.40;;;13.80;;
71734;SDS011;59577;52.122;5.406;2023-04-23T04:43:51;31.83;;;15.70;;
71734;SDS011;59577;52.122;5.406;2023-04-23T04:46:17;36.90;;;15.30;;
71734;SDS011;59577;52.122;5.406;2023-04-23T04:48:46;31.90;;;15.00;;
71734;SDS011;59577;52.122;5.406;2023-04-23T04:51:13;34.13;;;15.15;;
71734;SDS011;59577;52.122;5.406;2023-04-23T04:53:40;32.58;;;14.68;;
71734;SDS011;59577;52.122;5.406;2023-04-23T04:56:07;31.48;;;15.00;;
71734;SDS011;59577;52.122;5.406;2023-04-23T04:58:34;35.33;;;15.87;;
71734;SDS011;59577;52.122;5.406;2023-04-23T05:01:01;29.48;;;14.55;;
71734;SDS011;59577;52.122;5.406;2023-04-23T05:03:28;27.80;;;13.52;;
71734;SDS011;59577;52.122;5.406;2023-04-23T05:05:55;28.83;;;14.68;;
71734;SDS011;59577;52.122;5.406;2023-04-23T05:08:21;27.90;;;14.13;;
71734;SDS011;59577;52.122;5.406;2023-04-23T05:10:48;29.77;;;15.60;;
71734;SDS011;59577;52.122;5.406;2023-04-23T05:13:19;29.48;;;15.13;;
71734;SDS011;59577;52.122;5.406;2023-04-23T05:15:45;28.80;;;14.02;;
71734;SDS011;59577;52.122;5.406;2023-04-23T05:18:12;30.10;;;14.57;;
71734;SDS011;59577;52.122;5.406;2023-04-23T05:20:39;27.80;;;14.05;;
71734;SDS011;59577;52.122;5.406;2023-04-23T05:23:06;26.70;;;13.70;;
71734;SDS011;59577;52.122;5.406;2023-04-23T05:25:32;27.33;;;14.43;;
71734;SDS011;59577;52.122;5.406;2023-04-23T05:28:00;27.92;;;14.27;;
71734;SDS011;59577;52.122;5.406;2023-04-23T05:30:27;25.88;;;14.57;;
71734;SDS011;59577;52.122;5.406;2023-04-23T05:32:54;27.85;;;14.75;;
71734;SDS011;59577;52.122;5.406;2023-04-23T05:35:21;29.27;;;15.07;;
71734;SDS011;59577;52.122;5.406;2023-04-23T05:37:47;26.02;;;14.38;;
71734;SDS011;59577;52.122;5.406;2023-04-23T05:40:14;24.17;;;14.40;;
71734;SDS011;59577;52.122;5.406;2023-04-23T05:42:42;22.40;;;13.25;;
71734;SDS011;59577;52.122;5.406;2023-04-23T05:45:09;24.38;;;13.25;;
71734;SDS011;59577;52.122;5.406;2023-04-23T05:47:36;22.13;;;12.67;;
71734;SDS011;59577;52.122;5.406;2023-04-23T05:50:03;17.77;;;11.23;;
71734;SDS011;59577;52.122;5.406;2023-04-23T05:52:31;14.95;;;10.63;;
71734;SDS011;59577;52.122;5.406;2023-04-23T05:55:00;16.40;;;11.05;;
71734;SDS011;59577;52.122;5.406;2023-04-23T05:57:27;17.35;;;10.40;;
71734;SDS011;59577;52.122;5.406;2023-04-23T06:00:03;16.10;;;10.40;;
71734;SDS011;59577;52.122;5.406;2023-04-23T06:02:31;12.90;;;9.75;;
71734;SDS011;59577;52.122;5.406;2023-04-23T06:04:59;18.05;;;11.38;;
71734;SDS011;59577;52.122;5.406;2023-04-23T06:07:26;16.80;;;10.73;;
71734;SDS011;59577;52.122;5.406;2023-04-23T06:09:52;13.95;;;10.63;;
71734;SDS011;59577;52.122;5.406;2023-04-23T06:12:19;13.53;;;11.20;;
71734;SDS011;59577;52.122;5.406;2023-04-23T06:14:45;13.35;;;10.27;;
71734;SDS011;59577;52.122;5.406;2023-04-23T06:17:13;10.90;;;9.73;;
71734;SDS011;59577;52.122;5.406;2023-04-23T06:19:40;13.70;;;9.70;;
71734;SDS011;59577;52.122;5.406;2023-04-23T06:22:06;15.00;;;10.20;;
71734;SDS011;59577;52.122;5.406;2023-04-23T06:24:33;10.97;;;9.70;;
71734;SDS011;59577;52.122;5.406;2023-04-23T06:27:00;11.57;;;9.93;;
71734;SDS011;59577;52.122;5.406;2023-04-23T06:29:29;13.40;;;9.65;;
71734;SDS011;59577;52.122;5.406;2023-04-23T06:31:56;16.73;;;9.75;;
71734;SDS011;59577;52.122;5.406;2023-04-23T06:34:26;11.75;;;9.80;;
71734;SDS011;59577;52.122;5.406;2023-04-23T06:36:53;10.57;;;8.70;;
71734;SDS011;59577;52.122;5.406;2023-04-23T06:39:19;11.38;;;9.38;;
71734;SDS011;59577;52.122;5.406;2023-04-23T06:41:46;10.40;;;9.35;;
71734;SDS011;59577;52.122;5.406;2023-04-23T06:44:12;11.52;;;9.25;;
71734;SDS011;59577;52.122;5.406;2023-04-23T06:46:40;12.98;;;9.48;;
71734;SDS011;59577;52.122;5.406;2023-04-23T06:49:06;10.10;;;9.03;;
71734;SDS011;59577;52.122;5.406;2023-04-23T06:51:33;10.38;;;8.43;;
71734;SDS011;59577;52.122;5.406;2023-04-23T06:54:00;10.60;;;9.38;;
71734;SDS011;59577;52.122;5.406;2023-04-23T06:56:27;13.38;;;8.38;;
71734;SDS011;59577;52.122;5.406;2023-04-23T06:58:53;9.88;;;7.95;;
71734;SDS011;59577;52.122;5.406;2023-04-23T07:01:20;10.43;;;8.13;;
71734;SDS011;59577;52.122;5.406;2023-04-23T07:03:46;9.13;;;8.10;;
71734;SDS011;59577;52.122;5.406;2023-04-23T07:06:14;9.43;;;7.38;;
71734;SDS011;59577;52.122;5.406;2023-04-23T07:08:42;9.05;;;7.55;;
71734;SDS011;59577;52.122;5.406;2023-04-23T07:11:10;11.57;;;7.88;;
71734;SDS011;59577;52.122;5.406;2023-04-23T07:13:37;11.20;;;7.33;;
71734;SDS011;59577;52.122;5.406;2023-04-23T07:16:04;12.45;;;7.80;;
71734;SDS011;59577;52.122;5.406;2023-04-23T07:18:31;8.88;;;7.32;;
71734;SDS011;59577;52.122;5.406;2023-04-23T07:20:57;8.90;;;7.07;;
71734;SDS011;59577;52.122;5.406;2023-04-23T07:23:24;8.93;;;6.88;;
71734;SDS011;59577;52.122;5.406;2023-04-23T07:25:50;7.40;;;6.27;;
71734;SDS011;59577;52.122;5.406;2023-04-23T07:28:17;7.43;;;6.10;;
71734;SDS011;59577;52.122;5.406;2023-04-23T07:30:44;8.00;;;6.13;;
71734;SDS011;59577;52.122;5.406;2023-04-23T07:33:10;6.00;;;5.45;;
71734;SDS011;59577;52.122;5.406;2023-04-23T07:35:37;6.38;;;5.55;;
71734;SDS011;59577;52.122;5.406;2023-04-23T07:38:03;8.60;;;5.80;;
71734;SDS011;59577;52.122;5.406;2023-04-23T07:40:31;7.45;;;5.50;;
71734;SDS011;59577;52.122;5.406;2023-04-23T07:42:57;7.43;;;4.95;;
71734;SDS011;59577;52.122;5.406;2023-04-23T07:45:24;6.13;;;4.80;;
71734;SDS011;59577;52.122;5.406;2023-04-23T07:47:51;5.80;;;5.18;;
71734;SDS011;59577;52.122;5.406;2023-04-23T07:50:17;5.50;;;5.00;;
71734;SDS011;59577;52.122;5.406;2023-04-23T07:52:44;6.32;;;4.80;;
71734;SDS011;59577;52.122;5.406;2023-04-23T07:55:11;8.00;;;5.25;;
71734;SDS011;59577;52.122;5.406;2023-04-23T07:57:37;7.50;;;4.45;;
71734;SDS011;59577;52.122;5.406;2023-04-23T08:00:04;5.25;;;4.35;;
71734;SDS011;59577;52.122;5.406;2023-04-23T08:02:34;5.13;;;4.00;;
71734;SDS011;59577;52.122;5.406;2023-04-23T08:05:01;6.72;;;4.70;;
71734;SDS011;59577;52.122;5.406;2023-04-23T08:07:28;5.82;;;4.38;;
71734;SDS011;59577;52.122;5.406;2023-04-23T08:09:55;4.28;;;3.70;;
71734;SDS011;59577;52.122;5.406;2023-04-23T08:12:24;7.72;;;4.05;;
71734;SDS011;59577;52.122;5.406;2023-04-23T08:14:50;3.83;;;3.43;;
71734;SDS011;59577;52.122;5.406;2023-04-23T08:17:17;6.93;;;3.95;;
71734;SDS011;59577;52.122;5.406;2023-04-23T08:19:43;4.90;;;4.32;;
71734;SDS011;59577;52.122;5.406;2023-04-23T08:22:10;4.90;;;3.53;;
71734;SDS011;59577;52.122;5.406;2023-04-23T08:24:38;6.13;;;3.67;;
71734;SDS011;59577;52.122;5.406;2023-04-23T08:27:04;6.77;;;3.67;;
71734;SDS011;59577;52.122;5.406;2023-04-23T08:29:31;4.78;;;3.58;;
71734;SDS011;59577;52.122;5.406;2023-04-23T08:31:58;4.68;;;3.05;;
71734;SDS011;59577;52.122;5.406;2023-04-23T08:34:25;5.25;;;3.45;;
71734;SDS011;59577;52.122;5.406;2023-04-23T08:36:51;5.45;;;3.28;;
71734;SDS011;59577;52.122;5.406;2023-04-23T08:39:18;4.10;;;3.17;;
71734;SDS011;59577;52.122;5.406;2023-04-23T08:41:45;4.80;;;3.25;;
71734;SDS011;59577;52.122;5.406;2023-04-23T08:44:23;4.85;;;2.63;;
71734;SDS011;59577;52.122;5.406;2023-04-23T08:46:51;7.35;;;3.22;;
71734;SDS011;59577;52.122;5.406;2023-04-23T08:49:19;4.97;;;3.05;;
71734;SDS011;59577;52.122;5.406;2023-04-23T08:51:51;4.97;;;3.40;;
71734;SDS011;59577;52.122;5.406;2023-04-23T08:54:24;6.82;;;3.33;;
71734;SDS011;59577;52.122;5.406;2023-04-23T08:56:55;7.47;;;3.92;;
71734;SDS011;59577;52.122;5.406;2023-04-23T08:59:28;5.88;;;3.20;;
71734;SDS011;59577;52.122;5.406;2023-04-23T09:01:57;5.55;;;3.40;;
71734;SDS011;59577;52.122;5.406;2023-04-23T09:04:26;5.97;;;3.23;;
71734;SDS011;59577;52.122;5.406;2023-04-23T09:06:54;7.00;;;3.33;;
71734;SDS011;59577;52.122;5.406;2023-04-23T09:09:21;7.57;;;3.08;;
71734;SDS011;59577;52.122;5.406;2023-04-23T09:11:49;5.05;;;3.25;;
71734;SDS011;59577;52.122;5.406;2023-04-23T09:14:18;5.18;;;2.97;;
71734;SDS011;59577;52.122;5.406;2023-04-23T09:16:45;5.80;;;2.97;;
71734;SDS011;59577;52.122;5.406;2023-04-23T09:19:11;6.53;;;3.10;;
71734;SDS011;59577;52.122;5.406;2023-04-23T09:21:38;4.63;;;3.08;;
71734;SDS011;59577;52.122;5.406;2023-04-23T09:24:08;7.25;;;3.05;;
71734;SDS011;59577;52.122;5.406;2023-04-23T09:26:44;5.22;;;3.10;;
71734;SDS011;59577;52.122;5.406;2023-04-23T09:29:15;4.53;;;2.60;;
71734;SDS011;59577;52.122;5.406;2023-04-23T09:31:47;6.82;;;3.53;;
71734;SDS011;59577;52.122;5.406;2023-04-23T09:34:17;5.95;;;2.47;;
71734;SDS011;59577;52.122;5.406;2023-04-23T09:36:45;4.85;;;2.30;;
71734;SDS011;59577;52.122;5.406;2023-04-23T09:39:22;4.50;;;2.15;;
71734;SDS011;59577;52.122;5.406;2023-04-23T09:41:52;3.67;;;2.10;;
71734;SDS011;59577;52.122;5.406;2023-04-23T09:44:20;4.25;;;2.03;;
71734;SDS011;59577;52.122;5.406;2023-04-23T09:46:51;4.25;;;2.20;;
71734;SDS011;59577;52.122;5.406;2023-04-23T09:49:18;7.45;;;2.10;;
71734;SDS011;59577;52.122;5.406;2023-04-23T09:51:47;5.15;;;2.45;;
71734;SDS011;59577;52.122;5.406;2023-04-23T09:54:21;7.47;;;2.03;;
71734;SDS011;59577;52.122;5.406;2023-04-23T09:56:50;4.53;;;1.90;;
71734;SDS011;59577;52.122;5.406;2023-04-23T09:59:20;4.30;;;1.80;;
71734;SDS011;59577;52.122;5.406;2023-04-23T10:02:11;6.60;;;1.90;;
71734;SDS011;59577;52.122;5.406;2023-04-23T10:04:38;4.80;;;2.03;;
71734;SDS011;59577;52.122;5.406;2023-04-23T10:07:05;5.63;;;2.10;;
71734;SDS011;59577;52.122;5.406;2023-04-23T10:09:45;6.78;;;2.13;;
71734;SDS011;59577;52.122;5.406;2023-04-23T10:12:13;5.95;;;1.80;;
71734;SDS011;59577;52.122;5.406;2023-04-23T10:14:43;5.50;;;1.70;;
71734;SDS011;59577;52.122;5.406;2023-04-23T10:17:11;6.70;;;1.67;;
71734;SDS011;59577;52.122;5.406;2023-04-23T10:19:38;5.20;;;2.00;;
71734;SDS011;59577;52.122;5.406;2023-04-23T10:22:09;4.20;;;1.67;;
71734;SDS011;59577;52.122;5.406;2023-04-23T10:24:45;5.90;;;1.50;;
71734;SDS011;59577;52.122;5.406;2023-04-23T10:27:16;4.80;;;1.50;;
71734;SDS011;59577;52.122;5.406;2023-04-23T10:29:47;4.80;;;1.27;;
71734;SDS011;59577;52.122;5.406;2023-04-23T10:32:14;4.80;;;1.50;;
71734;SDS011;59577;52.122;5.406;2023-04-23T10:34:42;4.95;;;1.27;;
71734;SDS011;59577;52.122;5.406;2023-04-23T10:37:10;6.72;;;1.83;;
71734;SDS011;59577;52.122;5.406;2023-04-23T10:39:38;4.50;;;1.25;;
71734;SDS011;59577;52.122;5.406;2023-04-23T10:42:09;4.00;;;1.20;;
71734;SDS011;59577;52.122;5.406;2023-04-23T10:44:40;4.03;;;0.90;;
71734;SDS011;59577;52.122;5.406;2023-04-23T10:47:26;2.80;;;1.00;;
71734;SDS011;59577;52.122;5.406;2023-04-23T10:49:52;5.68;;;1.10;;
71734;SDS011;59577;52.122;5.406;2023-04-23T10:52:19;5.90;;;1.00;;
71734;SDS011;59577;52.122;5.406;2023-04-23T10:54:56;4.50;;;0.90;;
71734;SDS011;59577;52.122;5.406;2023-04-23T10:57:25;4.87;;;1.07;;
71734;SDS011;59577;52.122;5.406;2023-04-23T10:59:52;7.85;;;1.15;;
71734;SDS011;59577;52.122;5.406;2023-04-23T11:02:23;14.63;;;2.63;;
71734;SDS011;59577;52.122;5.406;2023-04-23T11:04:54;5.82;;;1.00;;
71734;SDS011;59577;52.122;5.406;2023-04-23T11:07:29;3.88;;;0.90;;
71734;SDS011;59577;52.122;5.406;2023-04-23T11:10:09;4.97;;;1.00;;
71734;SDS011;59577;52.122;5.406;2023-04-23T11:12:38;2.95;;;0.90;;
71734;SDS011;59577;52.122;5.406;2023-04-23T11:15:12;6.47;;;1.10;;
71734;SDS011;59577;52.122;5.406;2023-04-23T11:20:10;4.18;;;1.00;;
71734;SDS011;59577;52.122;5.406;2023-04-23T11:22:48;6.20;;;0.90;;
71734;SDS011;59577;52.122;5.406;2023-04-23T11:25:19;2.92;;;0.90;;
71734;SDS011;59577;52.122;5.406;2023-04-23T11:27:50;5.28;;;0.90;;
71734;SDS011;59577;52.122;5.406;2023-04-23T11:30:18;6.65;;;0.63;;
71734;SDS011;59577;52.122;5.406;2023-04-23T11:32:47;5.25;;;0.70;;
71734;SDS011;59577;52.122;5.406;2023-04-23T11:35:16;4.53;;;0.50;;
71734;SDS011;59577;52.122;5.406;2023-04-23T11:37:44;4.32;;;0.70;;
71734;SDS011;59577;52.122;5.406;2023-04-23T11:40:14;6.97;;;0.70;;
71734;SDS011;59577;52.122;5.406;2023-04-23T11:42:52;2.95;;;0.60;;
71734;SDS011;59577;52.122;5.406;2023-04-23T11:45:27;5.60;;;1.00;;
71734;SDS011;59577;52.122;5.406;2023-04-23T11:47:55;5.70;;;0.50;;
71734;SDS011;59577;52.122;5.406;2023-04-23T11:50:27;3.80;;;0.68;;
71734;SDS011;59577;52.122;5.406;2023-04-23T11:52:55;1.80;;;0.40;;
71734;SDS011;59577;52.122;5.406;2023-04-23T11:55:22;1.83;;;0.50;;
71734;SDS011;59577;52.122;5.406;2023-04-23T11:57:49;4.18;;;0.82;;
71734;SDS011;59577;52.122;5.406;2023-04-23T12:02:55;2.53;;;0.70;;
71734;SDS011;59577;52.122;5.406;2023-04-23T12:08:07;4.63;;;0.70;;
71734;SDS011;59577;52.122;5.406;2023-04-23T12:10:43;5.63;;;0.50;;
71734;SDS011;59577;52.122;5.406;2023-04-23T12:13:15;2.80;;;0.70;;
71734;SDS011;59577;52.122;5.406;2023-04-23T12:15:47;3.53;;;0.45;;
71734;SDS011;59577;52.122;5.406;2023-04-23T12:18:15;4.65;;;0.90;;
71734;SDS011;59577;52.122;5.406;2023-04-23T12:20:42;1.90;;;0.50;;
71734;SDS011;59577;52.122;5.406;2023-04-23T12:23:09;2.65;;;0.60;;
71734;SDS011;59577;52.122;5.406;2023-04-23T12:25:36;2.57;;;0.50;;
71734;SDS011;59577;52.122;5.406;2023-04-23T12:28:05;2.80;;;0.50;;
71734;SDS011;59577;52.122;5.406;2023-04-23T12:30:33;3.08;;;0.45;;
71734;SDS011;59577;52.122;5.406;2023-04-23T12:33:20;2.53;;;0.45;;
71734;SDS011;59577;52.122;5.406;2023-04-23T12:35:50;4.93;;;0.57;;
71734;SDS011;59577;52.122;5.406;2023-04-23T12:38:24;2.77;;;0.57;;
71734;SDS011;59577;52.122;5.406;2023-04-23T12:40:52;4.85;;;0.73;;
71734;SDS011;59577;52.122;5.406;2023-04-23T12:43:20;1.77;;;0.52;;
71734;SDS011;59577;52.122;5.406;2023-04-23T12:45:47;4.65;;;0.40;;
71734;SDS011;59577;52.122;5.406;2023-04-23T12:48:14;3.33;;;0.68;;
71734;SDS011;59577;52.122;5.406;2023-04-23T12:50:41;3.70;;;0.57;;
71734;SDS011;59577;52.122;5.406;2023-04-23T12:53:07;1.73;;;0.40;;
71734;SDS011;59577;52.122;5.406;2023-04-23T12:55:34;2.45;;;0.50;;
71734;SDS011;59577;52.122;5.406;2023-04-23T12:58:00;2.60;;;0.50;;
71734;SDS011;59577;52.122;5.406;2023-04-23T13:00:27;4.13;;;0.80;;
71734;SDS011;59577;52.122;5.406;2023-04-23T13:02:54;3.10;;;0.70;;
71734;SDS011;59577;52.122;5.406;2023-04-23T13:05:22;3.10;;;0.77;;
71734;SDS011;59577;52.122;5.406;2023-04-23T13:07:49;2.80;;;0.57;;
71734;SDS011;59577;52.122;5.406;2023-04-23T13:10:16;2.47;;;0.60;;
71734;SDS011;59577;52.122;5.406;2023-04-23T13:12:42;1.95;;;0.73;;
71734;SDS011;59577;52.122;5.406;2023-04-23T13:15:09;2.37;;;0.73;;
71734;SDS011;59577;52.122;5.406;2023-04-23T13:17:38;6.22;;;0.65;;
71734;SDS011;59577;52.122;5.406;2023-04-23T13:20:04;5.07;;;0.50;;
71734;SDS011;59577;52.122;5.406;2023-04-23T13:22:32;1.60;;;0.40;;
71734;SDS011;59577;52.122;5.406;2023-04-23T13:24:58;3.10;;;0.60;;
71734;SDS011;59577;52.122;5.406;2023-04-23T13:27:26;1.90;;;0.60;;
71734;SDS011;59577;52.122;5.406;2023-04-23T13:29:54;3.33;;;0.70;;
71734;SDS011;59577;52.122;5.406;2023-04-23T13:32:21;7.85;;;0.88;;
71734;SDS011;59577;52.122;5.406;2023-04-23T13:34:53;1.52;;;0.35;;
71734;SDS011;59577;52.122;5.406;2023-04-23T13:37:20;6.30;;;0.60;;
71734;SDS011;59577;52.122;5.406;2023-04-23T13:39:49;1.07;;;0.50;;
71734;SDS011;59577;52.122;5.406;2023-04-23T13:42:15;2.13;;;0.73;;
71734;SDS011;59577;52.122;5.406;2023-04-23T13:44:42;1.48;;;0.70;;
71734;SDS011;59577;52.122;5.406;2023-04-23T13:47:08;1.75;;;0.50;;
71734;SDS011;59577;52.122;5.406;2023-04-23T13:49:59;2.88;;;0.50;;
71734;SDS011;59577;52.122;5.406;2023-04-23T13:52:32;1.40;;;0.30;;
71734;SDS011;59577;52.122;5.406;2023-04-23T13:54:59;1.23;;;0.40;;
71734;SDS011;59577;52.122;5.406;2023-04-23T13:57:27;2.58;;;0.40;;
71734;SDS011;59577;52.122;5.406;2023-04-23T13:59:57;2.05;;;0.40;;
71734;SDS011;59577;52.122;5.406;2023-04-23T14:02:25;3.17;;;0.82;;
71734;SDS011;59577;52.122;5.406;2023-04-23T14:04:52;1.87;;;0.50;;
71734;SDS011;59577;52.122;5.406;2023-04-23T14:07:19;3.33;;;0.50;;
71734;SDS011;59577;52.122;5.406;2023-04-23T14:09:46;1.42;;;0.43;;
71734;SDS011;59577;52.122;5.406;2023-04-23T14:12:12;2.63;;;0.40;;
71734;SDS011;59577;52.122;5.406;2023-04-23T14:14:39;3.20;;;0.50;;
71734;SDS011;59577;52.122;5.406;2023-04-23T14:17:05;3.73;;;0.40;;
71734;SDS011;59577;52.122;5.406;2023-04-23T14:19:32;2.85;;;0.60;;
71734;SDS011;59577;52.122;5.406;2023-04-23T14:22:01;2.90;;;0.75;;
71734;SDS011;59577;52.122;5.406;2023-04-23T14:24:49;4.65;;;0.50;;
71734;SDS011;59577;52.122;5.406;2023-04-23T14:27:15;2.42;;;0.43;;
71734;SDS011;59577;52.122;5.406;2023-04-23T14:29:48;2.80;;;0.50;;
71734;SDS011;59577;52.122;5.406;2023-04-23T14:32:17;2.80;;;0.65;;
71734;SDS011;59577;52.122;5.406;2023-04-23T14:34:43;1.73;;;0.40;;
71734;SDS011;59577;52.122;5.406;2023-04-23T14:37:10;1.17;;;0.32;;
71734;SDS011;59577;52.122;5.406;2023-04-23T14:39:36;2.20;;;0.40;;
71734;SDS011;59577;52.122;5.406;2023-04-23T14:42:03;2.47;;;0.43;;
71734;SDS011;59577;52.122;5.406;2023-04-23T14:44:29;2.55;;;0.40;;
71734;SDS011;59577;52.122;5.406;2023-04-23T14:46:56;2.85;;;0.50;;
71734;SDS011;59577;52.122;5.406;2023-04-23T14:49:22;2.42;;;0.40;;